Skip Navigation Links
NOAA logo - Click to go to the NOAA homepage
NOAA's National Weather Service
Alaska Aviation Weather Unit
  NWS logo - Click to go to the NWS homepage
Left Navbar Graphic     12 AKDT = 20 GMT

   
NOAA is celebrating 200 years of science, service, and stewardship. Visit the NOAA 200th celebration Web site to learn more.
USA.gov is the U.S. Government's official Web portal to all Federal, state and local government Web resources and services.
Facebook
NWS on Facebook

Important Change Regarding the AAWU Web Presence

 

Over the last several months, the AAWU has been working to navigate its webpages to a nationally supported server. Security, as well as other needs, have necessitated the change.  We have been given an extension for the site changeover while we diligently work at addressing feedback received. As of July 14, 2017, aawu.arh.noaa.gov will be discontinued. The new AAWU web address is weather.gov/aawu. It is now live and will run in-parallel with the old site until it is discontinued on July 14, 2017. Please continue to send any feedback or questions regarding the new webpages to nws.ar.aawu.webauthors@noaa.gov.  Thank you for your patience during this time of transition.
AAWU Home :: Display TAF Add Bookmark
TAF PAKN 251725Z 2518/2618 20010KT 5SM -RA BR SCT007 OVC012
      TEMPO 2518/2522 2SM -RA BR OVC007
     FM260200 22008KT 6SM -RA BR OVC007
     FM261200 20010KT 3SM -RA BR OVC004=
METAR PAKN 251454Z AUTO 17004KT 10SM BKN006 OVC020 13/12 A2999=

PAKN 251501Z AUTO 18007KT 10SM OVC017 13/12 A2999=

SPECI PAKN 251517Z AUTO 18006KT 1 3/4SM BR SCT010 OVC015 13/12 A2999 RMK
     AO2 T01280122 TSNO=

SPECI PAKN 251526Z AUTO 18007KT 1 3/4SM BR BKN010 OVC015 13/12 A2999 RMK
     AO2 CIG 006V011 T01280122 TSNO=

PAKN 251533Z AUTO 18007KT 2 1/2SM BR BKN009 OVC013 13/12 A2998=

PAKN 251535Z AUTO 19007KT 3SM BR OVC011 13/12 A2998=

METAR PAKN 251554Z 20008KT 9SM OVC010 12/12 A2998=

PAKN 251608Z 20011KT 7SM -RA BKN008 OVC012 12/12 A2998=

PAKN 251608Z 20011KT 7SM -RA BKN008 OVC012 12/12 A2998 RMK AO2
     RAB00 CIG 005V009 P0000 T01220117=

PAKN 251631Z 19010KT 4SM -RA BR SCT007 BKN012 OVC024 12/12 A2998=

SPECI PAKN 251631Z 19010KT 4SM -RA BR SCT007 BKN012 OVC024 12/12 A2998
     RMK AO2 RAB00 P0000 T01220117=

PAKN 251641Z 19009KT 5SM -RA BR BKN007 BKN012 OVC024 12/12 A2998=

SPECI PAKN 251641Z 19009KT 5SM -RA BR BKN007 BKN012 OVC024 12/12 A2998
     RMK AO2 RAB00 P0000 T01220122=

METAR PAKN 251654Z 19008KT 4SM -RA BR BKN007 BKN014 OVC020 12/12
     A2998=

PAKN 251716Z 19010KT 2 1/2SM -RA BR OVC006 12/12 A2997=

PAKN 251716Z 19010KT 2 1/2SM -RA BR OVC006 12/12 A2997 RMK AO2
     P0000 T01220122=

METAR PAKN 251754Z 19008KT 3SM -RA BR BKN005 BKN010 OVC014 12/12
     A2997=

PAKN 251812Z 19008KT 2 1/2SM -RA BR BKN007 OVC012 13/13 A2997=

SPECI PAKN 251812Z 19008KT 2 1/2SM -RA BR BKN007 OVC012 13/13 A2997 RMK
     AO2 P0000 T01280128=

PAKN 251832Z 20010KT 4SM -RA BR BKN007 OVC011 13/13 A2997=

SPECI PAKN 251832Z 20010KT 4SM -RA BR BKN007 OVC011 13/13 A2997 RMK AO2
     P0001 T01280128=

METAR PAKN 251854Z 21010KT 6SM -RA BR BKN007 OVC011 13/13 A2997=

METAR PAKN 251954Z 21011KT 3SM -RA BR BKN007 OVC014 13/13 A2997 RMK AO2
     SLP147 P0004 T01280128=


NOAA's National Weather Service
Alaska Aviation Weather Unit
6930 Sand Lake Road
Anchorage, AK 99502-1845
Disclaimer
Credits
Glossary
Privacy Policy
About Us
Career Opportunities
Contact AAWU Internet Services Site last modified: April, 17th 2012